Time;durP1;ratioP1;P1;durP2;ratioP2;P2;SDS_P1;SDS_P2;PMS_P1;PMS_P2;Temp;Humidity;BMP_temperature;BMP_pressure;BME280_temperature;BME280_humidity;BME280_pressure;Samples;Min_cycle;Max_cycle;Signal;HPM_P1;HPM_P2
2022/07/19 00:01:40;;;;;;;668.80;625.50;;;19.70;74.70;;;;;;5006677;28;20216;-71
2022/07/19 00:04:06;;;;;;;629.00;589.40;;;19.70;75.40;;;;;;5008024;28;20674;-72
2022/07/19 00:06:32;;;;;;;686.93;642.13;;;19.70;76.10;;;;;;5006094;28;20216;-72
2022/07/19 00:08:58;;;;;;;624.17;584.43;;;19.60;76.40;;;;;;5008469;28;20246;-71
2022/07/19 00:11:24;;;;;;;613.57;574.97;;;19.60;76.90;;;;;;5006409;28;20262;-71
2022/07/19 00:13:50;;;;;;;657.10;614.87;;;19.50;77.50;;;;;;5008058;28;20199;-72
2022/07/19 00:16:15;;;;;;;641.20;600.23;;;19.50;77.10;;;;;;5005622;28;20239;-72
2022/07/19 00:18:41;;;;;;;682.67;638.20;;;19.50;77.30;;;;;;5008567;28;20184;-72
2022/07/19 00:21:07;;;;;;;758.10;709.53;;;19.50;77.40;;;;;;5006077;28;20764;-73
2022/07/19 00:23:32;;;;;;;685.10;641.00;;;19.50;77.90;;;;;;5008091;28;20294;-74
2022/07/19 00:25:58;;;;;;;659.63;617.37;;;19.40;77.50;;;;;;5006304;28;20720;-72
2022/07/19 00:28:23;;;;;;;621.40;582.23;;;19.40;77.50;;;;;;5007625;28;20196;-73
2022/07/19 00:30:49;;;;;;;601.97;563.97;;;19.30;77.50;;;;;;5005835;28;20203;-81
2022/07/19 00:33:14;;;;;;;599.20;561.97;;;19.30;78.30;;;;;;5007515;28;20195;-74
2022/07/19 00:35:40;;;;;;;599.27;561.90;;;19.30;81.90;;;;;;5005663;28;20289;-73
2022/07/19 00:38:08;;;;;;;614.33;575.80;;;19.30;84.60;;;;;;5007355;28;20242;-71
2022/07/19 00:40:33;;;;;;;613.43;575.40;;;19.30;86.20;;;;;;5005434;28;20260;-71
2022/07/19 00:42:59;;;;;;;784.40;734.40;;;19.30;82.50;;;;;;5007253;28;20196;-70
2022/07/19 00:45:24;;;;;;;750.07;702.13;;;19.40;79.00;;;;;;5001754;28;20610;-70
2022/07/19 00:47:50;;;;;;;730.60;683.67;;;19.40;81.20;;;;;;5007391;28;20224;-69
2022/07/19 00:50:16;;;;;;;730.87;683.77;;;19.40;85.60;;;;;;5003464;28;20256;-69
2022/07/19 00:52:45;;;;;;;731.90;684.70;;;19.40;88.70;;;;;;5005647;28;20176;-68
2022/07/19 00:55:11;;;;;;;728.30;681.43;;;19.30;89.00;;;;;;5004366;28;20196;-69
2022/07/19 00:57:38;;;;;;;921.60;863.87;;;19.30;86.50;;;;;;5007221;28;20190;-68
2022/07/19 01:00:06;;;;;;;898.93;842.87;;;19.30;83.40;;;;;;5004530;28;21087;-69
2022/07/19 01:02:32;;;;;;;915.90;858.97;;;19.30;83.10;;;;;;5006826;28;20197;-69
2022/07/19 01:04:59;;;;;;;929.83;869.53;;;19.30;87.90;;;;;;5004838;28;20605;-69
2022/07/19 01:07:24;;;;;;;898.57;842.57;;;19.20;85.50;;;;;;5006877;28;20226;-68
2022/07/19 01:09:51;;;;;;;919.43;859.53;;;19.20;85.20;;;;;;5004698;28;20187;-71
2022/07/19 01:12:17;;;;;;;884.27;829.03;;;19.10;84.00;;;;;;5006605;28;20235;-69
2022/07/19 01:14:43;;;;;;;900.60;844.20;;;19.00;88.40;;;;;;5005816;28;20230;-69
2022/07/19 01:17:09;;;;;;;921.77;864.63;;;19.00;89.90;;;;;;5007057;28;20212;-68
2022/07/19 01:19:34;;;;;;;942.23;883.40;;;18.90;91.50;;;;;;5006477;28;20190;-70
2022/07/19 01:22:00;;;;;;;911.53;854.70;;;18.90;90.70;;;;;;5004951;28;20220;-69
2022/07/19 01:24:25;;;;;;;920.77;863.33;;;18.80;91.10;;;;;;5000554;28;20203;-71
2022/07/19 01:26:51;;;;;;;926.13;868.30;;;18.80;93.20;;;;;;5004960;28;20236;-67
2022/07/19 01:29:17;;;;;;;933.07;874.93;;;18.80;96.90;;;;;;5006607;28;20202;-68
2022/07/19 01:31:43;;;;;;;929.80;871.70;;;18.70;99.90;;;;;;5004945;28;20655;-69
2022/07/19 01:34:08;;;;;;;934.40;875.50;;;18.70;99.90;;;;;;5006828;28;20201;-77
2022/07/19 01:36:34;;;;;;;930.00;871.27;;;18.70;99.90;;;;;;5004800;28;21148;-71
2022/07/19 01:39:00;;;;;;;972.77;902.03;;;18.60;99.90;;;;;;5006704;28;20203;-71
2022/07/19 01:41:26;;;;;;;984.10;913.87;;;18.70;97.50;;;;;;4996149;28;20691;-70
2022/07/19 01:43:51;;;;;;;996.10;924.60;;;18.60;97.60;;;;;;5005683;28;20187;-74
2022/07/19 01:46:17;;;;;;;971.00;900.10;;;18.70;98.10;;;;;;5004712;28;20210;-74
2022/07/19 01:48:42;;;;;;;986.70;915.87;;;18.70;99.90;;;;;;5006618;28;20216;-75
2022/07/19 01:51:08;;;;;;;969.20;897.97;;;18.60;99.90;;;;;;5004817;28;20211;-76
2022/07/19 01:53:34;;;;;;;960.80;890.17;;;18.60;98.40;;;;;;5007707;28;20202;-76
2022/07/19 01:55:59;;;;;;;966.13;894.53;;;18.50;98.30;;;;;;5006560;28;20200;-74
2022/07/19 01:58:25;;;;;;;963.03;891.17;;;18.50;98.00;;;;;;5009323;28;20204;-75
2022/07/19 02:00:51;;;;;;;976.87;903.97;;;18.40;99.80;;;;;;5007914;28;20715;-76
2022/07/19 02:03:17;;;;;;;977.30;903.50;;;18.40;99.90;;;;;;5007632;28;20364;-74
2022/07/19 02:05:43;;;;;;;960.97;886.27;;;18.40;99.90;;;;;;5005917;28;20676;-75
2022/07/19 02:08:09;;;;;;;970.70;893.00;;;18.40;99.90;;;;;;5007227;28;20293;-75
2022/07/19 02:10:35;;;;;;;990.07;908.77;;;18.30;99.90;;;;;;5004842;28;20695;-74
2022/07/19 02:13:00;;;;;;;992.63;906.07;;;18.30;99.90;;;;;;5006959;28;20190;-75
2022/07/19 02:15:26;;;;;;;971.87;879.47;;;18.20;99.80;;;;;;5004216;28;20687;-77
2022/07/19 02:17:52;;;;;;;980.20;886.50;;;18.20;99.80;;;;;;5006455;28;20671;-76
2022/07/19 02:20:18;;;;;;;977.83;889.77;;;18.20;99.80;;;;;;5004070;28;20744;-76
2022/07/19 02:22:43;;;;;;;961.63;876.03;;;18.20;99.80;;;;;;5006693;28;20280;-77
2022/07/19 02:25:09;;;;;;;990.90;898.07;;;18.10;99.90;;;;;;5004296;28;20214;-77
2022/07/19 02:27:35;;;;;;;982.87;897.50;;;18.10;99.90;;;;;;5005786;28;20541;-76
2022/07/19 02:30:01;;;;;;;968.90;885.07;;;18.10;99.90;;;;;;5003756;28;20271;-75
2022/07/19 02:32:26;;;;;;;977.17;889.17;;;18.10;99.90;;;;;;5004464;28;20205;-75
2022/07/19 02:34:52;;;;;;;966.23;877.33;;;18.10;99.90;;;;;;5006083;28;20195;-76
2022/07/19 02:37:17;;;;;;;668.27;625.67;;;18.10;99.90;;;;;;5004056;28;20721;-76
2022/07/19 02:39:43;;;;;;;531.07;499.67;;;18.10;99.90;;;;;;5004969;28;20189;-77
2022/07/19 02:42:08;;;;;;;377.40;357.53;;;18.00;99.90;;;;;;5003875;28;20664;-77
2022/07/19 02:44:33;;;;;;;359.53;341.37;;;17.90;99.90;;;;;;5005565;28;20193;-77
2022/07/19 02:46:59;;;;;;;258.17;244.97;;;17.90;99.90;;;;;;5003907;28;20821;-76
2022/07/19 02:49:24;;;;;;;228.47;217.07;;;17.80;99.90;;;;;;5005574;28;20539;-78
2022/07/19 02:51:50;;;;;;;240.17;228.70;;;17.70;99.90;;;;;;5003826;28;20277;-77
2022/07/19 02:54:15;;;;;;;368.07;348.63;;;17.80;99.90;;;;;;5006195;28;20185;-75
2022/07/19 02:56:41;;;;;;;134.47;127.07;;;17.70;99.90;;;;;;5003786;28;20221;-77
2022/07/19 02:59:07;;;;;;;135.47;128.00;;;17.70;99.90;;;;;;5005275;28;20198;-77
2022/07/19 03:01:32;;;;;;;299.07;284.23;;;17.70;99.90;;;;;;5003412;28;20227;-77
2022/07/19 03:03:59;;;;;;;112.17;104.40;;;17.70;99.90;;;;;;5006034;28;20678;-75
2022/07/19 03:06:25;;;;;;;142.73;134.90;;;17.70;99.90;;;;;;5003496;28;20625;-76
2022/07/19 03:08:50;;;;;;;160.97;150.70;;;17.60;99.90;;;;;;5005738;28;20319;-76
2022/07/19 03:11:16;;;;;;;51.10;45.73;;;17.60;99.90;;;;;;5006959;28;20258;-76
2022/07/19 03:13:41;;;;;;;27.43;24.20;;;17.70;99.90;;;;;;5009404;28;20755;-76
2022/07/19 03:16:07;;;;;;;36.93;19.10;;;17.70;99.90;;;;;;5005534;28;20278;-77
2022/07/19 03:18:33;;;;;;;29.87;15.47;;;17.60;99.90;;;;;;5008756;28;20785;-77
2022/07/19 03:20:59;;;;;;;26.17;12.37;;;17.60;99.90;;;;;;5006901;28;20302;-72
2022/07/19 03:23:31;;;;;;;30.80;14.27;;;17.60;99.90;;;;;;5009119;28;20595;-75
2022/07/19 03:25:57;;;;;;;28.77;11.43;;;17.50;99.90;;;;;;5007109;28;20193;-75
2022/07/19 03:28:22;;;;;;;22.97;11.17;;;17.50;99.90;;;;;;5007605;28;20252;-74
2022/07/19 03:30:48;;;;;;;27.93;13.47;;;17.50;99.90;;;;;;5006892;28;20288;-74
2022/07/19 03:33:15;;;;;;;30.97;13.23;;;17.50;99.90;;;;;;5008655;28;20184;-74
2022/07/19 03:35:43;;;;;;;30.17;12.77;;;17.60;99.90;;;;;;5006872;28;20198;-75
2022/07/19 03:38:09;;;;;;;37.73;15.93;;;17.60;99.90;;;;;;5009156;28;20641;-74
2022/07/19 03:40:34;;;;;;;31.40;12.47;;;17.60;99.90;;;;;;5006488;28;20221;-74
2022/07/19 03:43:00;;;;;;;32.13;13.50;;;17.60;99.90;;;;;;5008901;28;20182;-73
2022/07/19 03:45:25;;;;;;;65.80;30.20;;;17.60;99.90;;;;;;5006874;28;20783;-75
2022/07/19 03:47:51;;;;;;;24.90;11.03;;;17.60;99.90;;;;;;5008780;28;20289;-72
2022/07/19 03:50:17;;;;;;;32.73;15.10;;;17.60;99.90;;;;;;5006853;28;20210;-75
2022/07/19 03:52:42;;;;;;;27.87;12.20;;;17.60;99.90;;;;;;5009366;28;20205;-75
2022/07/19 03:55:08;;;;;;;31.70;12.30;;;17.50;99.90;;;;;;5008457;28;20231;-74
2022/07/19 03:57:34;;;;;;;25.10;11.80;;;17.60;99.90;;;;;;5006489;28;20207;-75
2022/07/19 03:59:59;;;;;;;22.97;9.63;;;17.60;99.90;;;;;;5008195;28;20192;-74
2022/07/19 04:02:25;;;;;;;26.63;9.97;;;17.70;99.90;;;;;;5006701;28;20239;-75
2022/07/19 04:04:50;;;;;;;20.73;9.57;;;17.70;99.90;;;;;;5008432;28;20206;-74
2022/07/19 04:07:16;;;;;;;30.83;13.23;;;17.70;99.90;;;;;;5006451;28;20222;-75
2022/07/19 04:09:41;;;;;;;27.90;11.97;;;17.70;99.90;;;;;;5008718;28;20587;-75
2022/07/19 04:12:07;;;;;;;27.63;10.90;;;17.80;99.90;;;;;;5006427;28;20205;-75
2022/07/19 04:14:32;;;;;;;27.77;11.80;;;17.80;99.90;;;;;;5007886;28;20201;-75
2022/07/19 04:16:58;;;;;;;29.97;11.37;;;17.80;99.90;;;;;;5005617;28;20202;-74
2022/07/19 04:19:23;;;;;;;22.63;9.63;;;17.90;99.90;;;;;;5008006;28;20196;-74
2022/07/19 04:21:49;;;;;;;31.40;14.07;;;17.90;99.90;;;;;;5005055;28;20224;-75
2022/07/19 04:24:14;;;;;;;20.33;10.40;;;18.00;99.90;;;;;;5007873;28;20198;-75
2022/07/19 04:26:40;;;;;;;35.77;14.13;;;18.00;99.90;;;;;;5005943;28;20217;-75
2022/07/19 04:29:05;;;;;;;29.90;12.47;;;18.00;99.90;;;;;;5007464;28;20287;-76
2022/07/19 04:31:31;;;;;;;28.30;12.03;;;18.10;99.90;;;;;;5005589;28;20205;-77
2022/07/19 04:33:56;;;;;;;33.07;26.00;;;18.10;99.90;;;;;;5007828;28;20852;-76
2022/07/19 04:36:22;;;;;;;33.57;13.97;;;18.20;99.90;;;;;;5005684;28;20285;-77
2022/07/19 04:38:47;;;;;;;23.40;12.87;;;18.30;99.90;;;;;;5007954;28;20188;-75
2022/07/19 04:41:12;;;;;;;29.40;12.87;;;18.30;99.90;;;;;;5005517;28;20213;-75
2022/07/19 04:43:38;;;;;;;25.53;12.60;;;18.40;99.90;;;;;;5007777;28;20217;-75
2022/07/19 04:46:04;;;;;;;33.40;14.37;;;18.50;99.90;;;;;;5005547;28;20199;-76
2022/07/19 04:48:29;;;;;;;32.80;13.67;;;18.50;99.90;;;;;;5007503;28;20187;-75
2022/07/19 04:50:55;;;;;;;20.70;9.97;;;18.60;99.90;;;;;;5005387;28;20535;-76
2022/07/19 04:53:20;;;;;;;24.73;8.73;;;18.70;99.90;;;;;;5007461;28;20195;-75
2022/07/19 04:55:45;;;;;;;64.83;28.37;;;18.80;99.90;;;;;;5005269;28;20612;-74
2022/07/19 04:58:11;;;;;;;17.93;8.50;;;18.90;99.50;;;;;;5007714;28;20221;-74
2022/07/19 05:00:36;;;;;;;65.37;25.97;;;19.20;98.20;;;;;;5005208;28;20309;-73
2022/07/19 05:03:02;;;;;;;19.23;8.33;;;19.30;98.00;;;;;;5007372;28;20190;-73
2022/07/19 05:05:27;;;;;;;19.67;9.10;;;19.40;96.90;;;;;;5007058;28;20195;-74
2022/07/19 05:07:53;;;;;;;20.67;8.70;;;19.60;95.90;;;;;;5004935;28;20227;-74
2022/07/19 05:10:18;;;;;;;25.30;10.07;;;19.80;95.80;;;;;;5007094;28;20250;-74
2022/07/19 05:12:44;;;;;;;19.33;8.73;;;19.90;94.60;;;;;;5005255;28;20212;-74
2022/07/19 05:15:10;;;;;;;14.87;6.30;;;20.10;94.20;;;;;;5006418;28;20281;-73
2022/07/19 05:17:36;;;;;;;19.50;7.63;;;20.20;93.80;;;;;;5005319;28;20318;-75
2022/07/19 05:20:03;;;;;;;19.27;8.60;;;20.30;92.80;;;;;;5007122;28;20203;-73
2022/07/19 05:22:29;;;;;;;21.70;9.10;;;20.40;92.90;;;;;;5005257;28;20203;-75
2022/07/19 05:24:55;;;;;;;23.00;7.47;;;20.50;92.60;;;;;;5006299;28;20180;-75
2022/07/19 05:27:21;;;;;;;22.73;9.10;;;20.60;91.90;;;;;;5005094;28;20298;-75
2022/07/19 05:29:47;;;;;;;22.60;9.13;;;20.80;91.50;;;;;;5007213;28;20209;-74
2022/07/19 05:32:12;;;;;;;20.27;8.00;;;20.90;91.30;;;;;;5004345;28;20235;-72
2022/07/19 05:34:38;;;;;;;23.60;7.83;;;21.00;90.70;;;;;;5006742;28;20307;-72
2022/07/19 05:37:04;;;;;;;18.97;7.83;;;21.00;90.30;;;;;;5004654;28;20207;-72
2022/07/19 05:39:29;;;;;;;19.17;8.70;;;21.20;90.00;;;;;;5006623;28;20559;-73
2022/07/19 05:41:55;;;;;;;18.50;8.03;;;21.20;89.50;;;;;;5004371;28;20230;-73
2022/07/19 05:44:21;;;;;;;20.27;8.43;;;21.30;88.80;;;;;;5006169;28;20193;-74
2022/07/19 05:46:47;;;;;;;18.03;8.20;;;21.40;89.30;;;;;;5004822;28;20677;-74
2022/07/19 05:49:12;;;;;;;24.97;10.83;;;21.50;88.60;;;;;;5006156;28;20213;-74
2022/07/19 05:51:38;;;;;;;34.17;12.73;;;21.70;88.40;;;;;;5004350;28;20921;-74
2022/07/19 05:54:04;;;;;;;23.13;10.00;;;21.80;88.20;;;;;;5006372;28;20258;-74
2022/07/19 05:56:31;;;;;;;24.43;10.67;;;21.90;87.70;;;;;;5004159;28;20209;-74
2022/07/19 05:58:56;;;;;;;11.40;5.63;;;22.10;87.60;;;;;;5006679;28;20188;-74
2022/07/19 06:01:22;;;;;;;24.23;10.20;;;22.20;86.60;;;;;;5004049;28;20215;-75
2022/07/19 06:04:06;;;;;;;24.97;9.67;;;22.20;86.30;;;;;;5006758;28;20927;-74
2022/07/19 06:06:33;;;;;;;29.30;10.83;;;22.30;85.80;;;;;;4997993;28;20270;-74
2022/07/19 06:08:59;;;;;;;17.07;7.47;;;22.30;85.20;;;;;;5006246;28;20199;-73
2022/07/19 06:11:25;;;;;;;18.53;7.67;;;22.50;84.70;;;;;;5004154;28;20203;-73
2022/07/19 06:13:51;;;;;;;17.83;7.50;;;22.50;84.50;;;;;;5006093;28;20199;-73
2022/07/19 06:16:17;;;;;;;19.77;7.87;;;22.80;84.70;;;;;;5002133;28;20196;-73
2022/07/19 06:18:42;;;;;;;14.43;6.50;;;23.00;84.10;;;;;;5006204;28;20196;-73
2022/07/19 06:21:16;;;;;;;16.63;7.40;;;23.00;83.70;;;;;;5004199;28;20232;-74
2022/07/19 06:23:42;;;;;;;18.40;7.93;;;23.20;83.50;;;;;;5006024;28;20208;-74
2022/07/19 06:26:09;;;;;;;21.15;8.93;;;23.40;82.60;;;;;;5003866;28;20193;-74
2022/07/19 06:28:35;;;;;;;18.00;8.35;;;23.60;81.60;;;;;;5005943;28;20172;-74
2022/07/19 06:31:00;;;;;;;54.47;20.57;;;23.90;81.60;;;;;;5003956;28;20196;-73
2022/07/19 06:33:26;;;;;;;19.27;7.40;;;24.00;80.80;;;;;;5006093;28;20255;-74
2022/07/19 06:35:51;;;;;;;31.33;11.38;;;24.20;79.80;;;;;;5003961;28;20656;-73
2022/07/19 06:38:17;;;;;;;11.15;5.28;;;24.40;79.80;;;;;;5006316;28;20192;-74
2022/07/19 06:40:42;;;;;;;17.85;7.28;;;24.50;77.80;;;;;;5005994;28;20211;-74
2022/07/19 06:43:08;;;;;;;13.47;6.17;;;24.60;77.10;;;;;;5003986;28;20200;-74
2022/07/19 06:45:34;;;;;;;15.82;6.30;;;24.70;74.50;;;;;;5009346;28;20200;-73
2022/07/19 06:48:00;;;;;;;12.82;6.05;;;24.90;75.10;;;;;;5008233;28;20289;-74
2022/07/19 06:50:26;;;;;;;23.95;9.85;;;25.00;73.50;;;;;;5009843;28;20303;-75
2022/07/19 06:52:51;;;;;;;18.27;6.60;;;25.10;72.90;;;;;;5007595;28;20255;-74
2022/07/19 06:55:17;;;;;;;17.90;7.70;;;25.30;72.10;;;;;;5009465;28;20199;-74
2022/07/19 06:57:43;;;;;;;12.30;5.20;;;25.20;71.50;;;;;;5008220;28;20267;-73
2022/07/19 07:00:09;;;;;;;18.85;7.53;;;25.10;70.70;;;;;;5009444;28;20231;-74
2022/07/19 07:02:39;;;;;;;19.05;16.80;;;25.00;70.90;;;;;;5007387;28;20200;-74
2022/07/19 07:05:06;;;;;;;19.38;8.63;;;25.20;70.90;;;;;;5009711;28;20193;-75
2022/07/19 07:07:32;;;;;;;16.77;6.43;;;25.40;69.30;;;;;;5006966;28;20335;-76
2022/07/19 07:09:57;;;;;;;18.90;7.40;;;25.30;68.70;;;;;;5009506;28;20695;-73
2022/07/19 07:12:23;;;;;;;14.43;6.28;;;25.20;68.80;;;;;;5007419;28;20300;-73
2022/07/19 07:14:48;;;;;;;15.43;6.65;;;25.60;68.80;;;;;;5009771;28;20192;-74
2022/07/19 07:17:14;;;;;;;19.63;7.25;;;25.80;67.50;;;;;;5007279;28;21038;-75
2022/07/19 07:19:39;;;;;;;16.63;7.18;;;26.00;67.50;;;;;;5009377;28;20196;-75
2022/07/19 07:22:05;;;;;;;21.45;7.72;;;26.20;67.50;;;;;;5007477;28;20229;-77
2022/07/19 07:24:30;;;;;;;16.52;5.72;;;26.30;67.10;;;;;;5009238;28;20218;-74
2022/07/19 07:26:56;;;;;;;18.98;8.50;;;26.50;66.80;;;;;;5007471;28;20296;-72
2022/07/19 07:29:21;;;;;;;21.85;7.55;;;26.50;63.90;;;;;;5011735;28;20179;-76
2022/07/19 07:31:47;;;;;;;18.77;7.65;;;26.60;64.00;;;;;;5016022;28;20214;-77
2022/07/19 07:34:12;;;;;;;21.70;8.32;;;26.60;63.50;;;;;;5009422;28;20180;-78
2022/07/19 07:36:38;;;;;;;25.42;9.80;;;26.70;64.60;;;;;;5009283;28;20285;-79
2022/07/19 07:39:03;;;;;;;16.50;6.80;;;26.80;63.10;;;;;;5008761;28;20238;-78
2022/07/19 07:41:29;;;;;;;28.25;10.10;;;26.90;62.00;;;;;;5006288;28;20277;-77
2022/07/19 07:43:54;;;;;;;19.33;7.03;;;27.00;62.00;;;;;;5008664;28;20985;-81
2022/07/19 07:46:20;;;;;;;57.60;21.15;;;27.00;60.80;;;;;;5007259;28;20203;-75
2022/07/19 07:48:45;;;;;;;16.52;7.00;;;27.10;60.50;;;;;;5009234;28;20201;-74
2022/07/19 07:51:11;;;;;;;36.13;15.50;;;27.30;61.10;;;;;;5008544;28;20190;-86
2022/07/19 07:53:36;;;;;;;14.13;5.45;;;27.40;60.30;;;;;;5012091;28;20614;-83
2022/07/19 07:56:02;;;;;;;14.52;6.85;;;27.40;60.00;;;;;;5012135;28;20618;-84
2022/07/19 07:58:28;;;;;;;22.45;8.10;;;27.40;60.10;;;;;;5006652;28;20274;-79
2022/07/19 08:00:53;;;;;;;24.65;8.45;;;27.60;59.40;;;;;;5008676;28;20227;-83
2022/07/19 08:03:19;;;;;;;16.58;7.10;;;27.70;59.90;;;;;;5008158;28;20215;-85
2022/07/19 08:05:48;;;;;;;27.65;17.40;;;27.80;59.10;;;;;;5010017;28;20214;-80
2022/07/19 08:08:14;;;;;;;11.00;5.25;;;27.80;58.10;;;;;;5021931;28;20333;-89
2022/07/19 08:10:40;;;;;;;13.98;5.75;;;28.00;58.10;;;;;;5026911;28;20202;-89
2022/07/19 08:13:06;;;;;;;38.00;35.08;;;27.90;58.20;;;;;;5027890;28;20281;-90
2022/07/19 08:15:31;;;;;;;14.07;6.50;;;28.00;57.80;;;;;;5017712;28;20318;-85
2022/07/19 08:17:57;;;;;;;10.25;5.60;;;28.10;57.20;;;;;;5019803;28;20357;-86
2022/07/19 08:20:22;;;;;;;21.13;7.00;;;28.30;57.40;;;;;;5020259;28;20212;-85
2022/07/19 08:22:48;;;;;;;18.42;8.25;;;28.40;56.30;;;;;;5015214;28;20200;-86
2022/07/19 08:25:16;;;;;;;18.10;6.35;;;28.50;55.80;;;;;;5015332;28;20199;-87
2022/07/19 08:27:44;;;;;;;17.85;6.70;;;28.50;55.60;;;;;;5012625;28;20196;-87
2022/07/19 08:30:11;;;;;;;16.75;8.85;;;28.50;55.60;;;;;;5015043;28;20184;-86
2022/07/19 08:32:38;;;;;;;12.40;6.75;;;28.70;55.40;;;;;;5008516;28;20805;-85
2022/07/19 08:35:05;;;;;;;13.25;6.10;;;28.70;56.10;;;;;;5010732;28;20195;-85
2022/07/19 08:37:30;;;;;;;13.98;5.72;;;28.80;55.70;;;;;;5015395;28;20184;-86
2022/07/19 08:39:56;;;;;;;13.80;5.05;;;28.90;55.40;;;;;;5020046;28;20205;-88
2022/07/19 08:42:22;;;;;;;15.27;6.60;;;29.00;55.10;;;;;;5013936;28;20748;-89
2022/07/19 08:44:50;;;;;;;11.13;4.90;;;29.20;53.60;;;;;;5025451;28;20195;-87
2022/07/19 08:47:18;;;;;;;13.75;5.95;;;29.20;54.10;;;;;;5017779;28;20219;-86
2022/07/19 08:49:44;;;;;;;13.77;6.43;;;29.20;53.30;;;;;;5017291;28;20690;-85
2022/07/19 08:52:11;;;;;;;15.35;5.68;;;29.30;52.80;;;;;;5012614;28;20276;-86
2022/07/19 08:54:37;;;;;;;13.23;6.05;;;29.60;53.00;;;;;;5010513;28;20190;-87
2022/07/19 08:59:47;;;;;;;15.93;6.88;;;29.70;52.30;;;;;;5013324;28;20513;-85
2022/07/19 09:02:12;;;;;;;15.38;7.20;;;29.70;51.60;;;;;;5010270;28;20200;-86
2022/07/19 09:04:38;;;;;;;12.30;5.82;;;29.60;52.00;;;;;;5016907;28;20187;-85
2022/07/19 09:07:03;;;;;;;12.40;5.80;;;29.60;51.00;;;;;;5019518;28;20223;-87
2022/07/19 09:09:31;;;;;;;16.27;6.75;;;29.80;51.20;;;;;;5041101;28;20182;-84
2022/07/19 09:11:59;;;;;;;13.85;5.93;;;29.90;51.40;;;;;;5039315;28;20207;-87
2022/07/19 09:14:30;;;;;;;38.50;16.55;;;30.10;51.50;;;;;;5037274;28;20180;-85
2022/07/19 09:17:02;;;;;;;10.82;5.10;;;30.30;50.20;;;;;;5030271;28;20207;-84
2022/07/19 09:19:36;;;;;;;24.15;10.75;;;30.50;49.90;;;;;;5034197;28;20242;-87
2022/07/19 09:22:04;;;;;;;10.63;4.53;;;30.60;48.30;;;;;;5019671;28;20733;-80
2022/07/19 09:24:36;;;;;;;17.27;7.13;;;30.70;48.50;;;;;;5028778;28;20664;-78
2022/07/19 09:27:07;;;;;;;10.90;5.60;;;30.80;47.30;;;;;;5027289;28;20196;-79
2022/07/19 09:29:37;;;;;;;13.20;6.32;;;30.50;47.20;;;;;;5033157;28;20187;-80
2022/07/19 09:32:06;;;;;;;11.82;6.05;;;30.70;47.10;;;;;;5011728;28;20204;-76
2022/07/19 09:34:38;;;;;;;17.38;6.60;;;30.90;47.60;;;;;;5028044;28;20194;-78
2022/07/19 09:37:07;;;;;;;10.93;5.60;;;30.90;46.90;;;;;;5021132;28;20294;-82
2022/07/19 09:39:33;;;;;;;15.13;6.00;;;31.30;46.30;;;;;;5026527;28;20290;-78
2022/07/19 09:41:58;;;;;;;14.88;6.30;;;31.40;46.30;;;;;;5018376;28;20302;-80
2022/07/19 09:44:24;;;;;;;11.32;5.28;;;31.50;45.30;;;;;;5021872;28;20269;-77
2022/07/19 09:46:50;;;;;;;13.70;6.90;;;31.60;45.20;;;;;;5033447;28;20223;-78
2022/07/19 09:49:17;;;;;;;10.65;5.38;;;31.50;46.10;;;;;;5028790;28;20677;-81
2022/07/19 09:51:49;;;;;;;35.90;16.02;;;31.60;45.20;;;;;;5023887;28;20191;-76
2022/07/19 09:54:20;;;;;;;20.23;7.78;;;31.80;45.20;;;;;;5026701;28;20285;-83
2022/07/19 09:56:48;;;;;;;35.13;16.33;;;31.90;45.10;;;;;;5023643;28;20183;-80
2022/07/19 09:59:14;;;;;;;15.00;7.82;;;32.00;45.00;;;;;;5026398;28;20270;-79
2022/07/19 10:01:42;;;;;;;37.35;15.73;;;32.00;45.00;;;;;;5023305;28;20218;-79
2022/07/19 10:04:13;;;;;;;12.30;6.10;;;32.10;44.60;;;;;;5026250;28;20190;-81
2022/07/19 10:06:40;;;;;;;32.53;16.20;;;31.90;43.70;;;;;;5024080;28;20670;-80
2022/07/19 10:09:08;;;;;;;11.93;5.50;;;32.00;44.70;;;;;;5025631;28;20564;-79
2022/07/19 10:11:34;;;;;;;9.30;5.82;;;32.40;43.60;;;;;;5023789;28;20191;-77
2022/07/19 10:14:01;;;;;;;1358.35;999.90;;;32.50;43.40;;;;;;5021678;28;20879;-75
2022/07/19 10:16:44;;;;;;;1316.93;999.90;;;32.40;46.90;;;;;;5026996;28;20203;-74
2022/07/19 10:19:40;;;;;;;1326.55;999.90;;;32.50;50.80;;;;;;5017609;28;20191;-75
2022/07/19 10:22:10;;;;;;;1316.28;999.90;;;32.40;48.60;;;;;;5019453;28;20657;-75
2022/07/19 10:24:55;;;;;;;1335.77;999.90;;;32.20;44.10;;;;;;5025806;28;20717;-72
2022/07/19 10:27:23;;;;;;;1329.17;999.90;;;32.10;43.30;;;;;;5013397;28;20278;-77
2022/07/19 10:29:49;;;;;;;1321.10;999.90;;;32.10;44.40;;;;;;5034984;28;20859;-77
2022/07/19 10:32:15;;;;;;;1329.07;999.90;;;31.90;43.80;;;;;;5032576;28;20231;-78
2022/07/19 10:34:42;;;;;;;1323.03;999.90;;;31.90;44.20;;;;;;5035380;28;20178;-77
2022/07/19 10:37:08;;;;;;;1331.57;999.90;;;31.90;42.70;;;;;;5032755;28;20389;-74
2022/07/19 10:39:39;;;;;;;1327.70;999.90;;;31.90;40.10;;;;;;5030616;28;20184;-75
2022/07/19 10:42:19;;;;;;;1320.30;999.90;;;31.80;41.20;;;;;;5035663;28;20265;-75
2022/07/19 10:45:02;;;;;;;1324.70;999.90;;;32.00;39.00;;;;;;5010599;28;20183;-75
2022/07/19 10:47:39;;;;;;;1332.47;999.90;;;32.00;39.10;;;;;;5014063;28;20194;-74
2022/07/19 10:50:20;;;;;;;1325.57;999.90;;;32.00;39.10;;;;;;5025918;28;20212;-75
2022/07/19 10:52:46;;;;;;;1327.88;999.90;;;32.10;38.60;;;;;;5020474;28;20218;-75
2022/07/19 10:55:22;;;;;;;1325.43;999.90;;;32.00;40.00;;;;;;5026569;28;20184;-74
2022/07/19 10:58:06;;;;;;;1330.30;999.90;;;32.30;42.20;;;;;;5029026;28;20661;-75
2022/07/19 11:00:42;;;;;;;1320.57;999.90;;;32.20;39.10;;;;;;5024348;28;20234;-76
2022/07/19 11:03:23;;;;;;;1337.70;999.90;;;32.50;41.30;;;;;;5015747;28;20281;-75
2022/07/19 11:05:54;;;;;;;1336.83;999.90;;;32.80;37.40;;;;;;5024963;28;20191;-75
2022/07/19 11:08:40;;;;;;;1333.53;999.90;;;33.10;36.60;;;;;;5023205;28;20223;-75
2022/07/19 11:11:07;;;;;;;1333.67;999.90;;;33.80;35.70;;;;;;5007035;28;20203;-75
2022/07/19 11:13:34;;;;;;;1331.37;999.90;;;34.30;34.70;;;;;;5023132;28;20254;-75
2022/07/19 11:16:02;;;;;;;1334.83;999.90;;;34.60;33.60;;;;;;5024556;28;20227;-75
2022/07/19 11:18:28;;;;;;;1342.73;999.90;;;35.40;35.20;;;;;;5023203;28;20258;-75
2022/07/19 11:20:57;;;;;;;1348.33;999.90;;;36.10;33.40;;;;;;5024867;28;20220;-74
2022/07/19 11:23:23;;;;;;;1360.43;999.90;;;36.60;31.50;;;;;;5022960;28;20203;-75
2022/07/19 11:25:52;;;;;;;1353.33;999.90;;;36.80;32.10;;;;;;5025142;28;20379;-75
2022/07/19 11:28:22;;;;;;;1373.20;999.90;;;37.20;31.60;;;;;;5023511;28;20191;-75
2022/07/19 11:30:47;;;;;;;1382.27;999.90;;;37.80;32.50;;;;;;5026700;28;20201;-75
2022/07/19 11:33:16;;;;;;;1373.23;999.90;;;38.40;32.80;;;;;;5026957;28;20294;-75
2022/07/19 11:36:03;;;;;;;1376.63;999.90;;;38.90;31.60;;;;;;5028238;28;20199;-76
2022/07/19 11:38:35;;;;;;;1378.10;999.90;;;39.50;31.30;;;;;;5020165;28;20211;-76
2022/07/19 11:41:00;;;;;;;1387.23;999.90;;;39.80;28.60;;;;;;5028864;28;20196;-76
2022/07/19 11:43:26;;;;;;;1387.37;999.90;;;40.00;29.10;;;;;;5026457;28;20211;-76
2022/07/19 11:45:52;;;;;;;1395.20;999.90;;;40.70;29.20;;;;;;5028086;28;20683;-76
2022/07/19 11:48:29;;;;;;;1408.50;999.90;;;41.00;29.40;;;;;;5026537;28;20202;-76
2022/07/19 11:50:59;;;;;;;1377.13;999.90;;;41.30;27.40;;;;;;5028473;28;20247;-75
2022/07/19 11:53:24;;;;;;;1370.93;999.90;;;41.50;27.40;;;;;;5022659;28;20192;-76
2022/07/19 11:55:50;;;;;;;1388.93;999.90;;;41.70;27.60;;;;;;5026170;28;20249;-76
2022/07/19 11:58:15;;;;;;;1420.25;999.90;;;42.00;27.70;;;;;;5026125;28;20196;-76
2022/07/19 12:00:43;;;;;;;1426.10;999.90;;;42.40;27.30;;;;;;5012201;28;20920;-75
2022/07/19 12:03:14;;;;;;;1437.97;999.90;;;42.90;27.00;;;;;;5016116;28;20210;-77
2022/07/19 12:05:40;;;;;;;1316.30;999.90;;;43.50;26.90;;;;;;5028017;28;20283;-78
2022/07/19 12:08:07;;;;;;;960.38;888.40;;;44.00;26.50;;;;;;5028571;28;20226;-78
2022/07/19 12:10:42;;;;;;;1005.10;930.75;;;44.50;26.10;;;;;;5032334;28;20693;-76
2022/07/19 12:13:13;;;;;;;1119.30;999.90;;;44.80;25.80;;;;;;5032252;28;20840;-76
2022/07/19 12:15:54;;;;;;;1238.45;999.90;;;44.80;25.00;;;;;;5027455;28;20204;-77
2022/07/19 12:18:22;;;;;;;1371.60;999.90;;;44.80;24.80;;;;;;5033064;28;20278;-78
2022/07/19 12:21:14;;;;;;;1393.13;999.90;;;44.90;23.80;;;;;;5027769;28;20199;-73
2022/07/19 12:23:39;;;;;;;1459.43;999.90;;;44.90;24.30;;;;;;5026380;28;20654;-75